sensor_id;sensor_type;location;lat;lon;timestamp;pressure;altitude;pressure_sealevel;temperature;humidity
65546;BME280;52177;55.968;37.498;2023-07-09T00:00:30;99473.50;;;14.83;73.62
65546;BME280;52177;55.968;37.498;2023-07-09T00:01:00;99468.34;;;14.81;73.68
65546;BME280;52177;55.968;37.498;2023-07-09T00:01:30;99469.41;;;14.80;73.84
65546;BME280;52177;55.968;37.498;2023-07-09T00:02:01;99468.53;;;14.80;73.81
65546;BME280;52177;55.968;37.498;2023-07-09T00:02:32;99472.06;;;14.80;73.91
65546;BME280;52177;55.968;37.498;2023-07-09T00:03:02;99473.91;;;14.80;74.05
65546;BME280;52177;55.968;37.498;2023-07-09T00:03:32;99470.22;;;14.81;73.97
65546;BME280;52177;55.968;37.498;2023-07-09T00:04:03;99464.03;;;14.80;73.83
65546;BME280;52177;55.968;37.498;2023-07-09T00:04:33;99464.84;;;14.81;73.75
65546;BME280;52177;55.968;37.498;2023-07-09T00:05:04;99468.53;;;14.80;73.79
65546;BME280;52177;55.968;37.498;2023-07-09T00:05:34;99468.34;;;14.81;73.72
65546;BME280;52177;55.968;37.498;2023-07-09T00:06:07;99468.16;;;14.83;73.55
65546;BME280;52177;55.968;37.498;2023-07-09T00:06:39;99469.78;;;14.84;73.77
65546;BME280;52177;55.968;37.498;2023-07-09T00:07:21;99462.34;;;14.86;73.64
65546;BME280;52177;55.968;37.498;2023-07-09T00:07:53;99468.53;;;14.86;73.56
65546;BME280;52177;55.968;37.498;2023-07-09T00:08:28;99468.53;;;14.86;73.60
65546;BME280;52177;55.968;37.498;2023-07-09T00:08:59;99461.34;;;14.87;73.44
65546;BME280;52177;55.968;37.498;2023-07-09T00:09:30;99467.72;;;14.86;73.23
65546;BME280;52177;55.968;37.498;2023-07-09T00:10:00;99473.09;;;14.86;73.44
65546;BME280;52177;55.968;37.498;2023-07-09T00:10:31;99464.00;;;14.87;73.23
65546;BME280;52177;55.968;37.498;2023-07-09T00:11:01;99470.59;;;14.84;73.27
65546;BME280;52177;55.968;37.498;2023-07-09T00:11:31;99473.50;;;14.83;73.24
65546;BME280;52177;55.968;37.498;2023-07-09T00:12:02;99465.88;;;14.80;73.35
65546;BME280;52177;55.968;37.498;2023-07-09T00:12:32;99470.63;;;14.77;73.60
65546;BME280;52177;55.968;37.498;2023-07-09T00:13:03;99467.34;;;14.75;73.77
65546;BME280;52177;55.968;37.498;2023-07-09T00:13:33;99461.34;;;14.73;73.79
65546;BME280;52177;55.968;37.498;2023-07-09T00:14:05;99462.38;;;14.72;73.90
65546;BME280;52177;55.968;37.498;2023-07-09T00:14:35;99462.38;;;14.72;74.06
65546;BME280;52177;55.968;37.498;2023-07-09T00:15:06;99464.03;;;14.73;74.09
65546;BME280;52177;55.968;37.498;2023-07-09T00:15:39;99462.38;;;14.72;74.08
65546;BME280;52177;55.968;37.498;2023-07-09T00:16:19;99469.19;;;14.75;74.05
65546;BME280;52177;55.968;37.498;2023-07-09T00:16:51;99468.34;;;14.74;73.97
65546;BME280;52177;55.968;37.498;2023-07-09T00:17:32;99462.16;;;14.74;73.87
65546;BME280;52177;55.968;37.498;2023-07-09T00:18:08;99463.84;;;14.75;74.03
65546;BME280;52177;55.968;37.498;2023-07-09T00:18:39;99467.34;;;14.75;74.01
65546;BME280;52177;55.968;37.498;2023-07-09T00:19:18;99464.84;;;14.74;73.68
65546;BME280;52177;55.968;37.498;2023-07-09T00:19:49;99459.69;;;14.72;73.92
65546;BME280;52177;55.968;37.498;2023-07-09T00:20:19;99454.31;;;14.72;73.88
65546;BME280;52177;55.968;37.498;2023-07-09T00:20:50;99463.63;;;14.70;73.74
65546;BME280;52177;55.968;37.498;2023-07-09T00:21:21;99466.28;;;14.70;73.80
65546;BME280;52177;55.968;37.498;2023-07-09T00:21:52;99462.59;;;14.71;73.59
65546;BME280;52177;55.968;37.498;2023-07-09T00:22:23;99467.16;;;14.70;73.84
65546;BME280;52177;55.968;37.498;2023-07-09T00:22:53;99457.44;;;14.69;73.83
65546;BME280;52177;55.968;37.498;2023-07-09T00:23:23;99461.97;;;14.69;73.94
65546;BME280;52177;55.968;37.498;2023-07-09T00:23:54;99468.16;;;14.69;74.13
65546;BME280;52177;55.968;37.498;2023-07-09T00:24:24;99457.44;;;14.69;73.90
65546;BME280;52177;55.968;37.498;2023-07-09T00:24:55;99456.63;;;14.69;73.85
65546;BME280;52177;55.968;37.498;2023-07-09T00:25:28;99457.44;;;14.69;73.84
65546;BME280;52177;55.968;37.498;2023-07-09T00:25:58;99461.16;;;14.68;73.91
65546;BME280;52177;55.968;37.498;2023-07-09T00:26:29;99461.16;;;14.68;73.79
65546;BME280;52177;55.968;37.498;2023-07-09T00:27:00;99457.63;;;14.68;73.68
65546;BME280;52177;55.968;37.498;2023-07-09T00:27:30;99457.84;;;14.66;73.63
65546;BME280;52177;55.968;37.498;2023-07-09T00:28:02;99465.09;;;14.66;73.73
65546;BME280;52177;55.968;37.498;2023-07-09T00:28:32;99460.75;;;14.65;73.87
65546;BME280;52177;55.968;37.498;2023-07-09T00:29:02;99461.78;;;14.64;73.81
65546;BME280;52177;55.968;37.498;2023-07-09T00:29:33;99460.75;;;14.65;73.90
65546;BME280;52177;55.968;37.498;2023-07-09T00:30:03;99460.75;;;14.65;73.93
65546;BME280;52177;55.968;37.498;2023-07-09T00:30:34;99459.91;;;14.64;74.00
65546;BME280;52177;55.968;37.498;2023-07-09T00:31:04;99455.38;;;14.65;74.00
65546;BME280;52177;55.968;37.498;2023-07-09T00:31:35;99463.41;;;14.65;74.19
65546;BME280;52177;55.968;37.498;2023-07-09T00:32:18;99462.59;;;14.64;73.84
65546;BME280;52177;55.968;37.498;2023-07-09T00:32:50;99459.91;;;14.64;73.78
65546;BME280;52177;55.968;37.498;2023-07-09T00:33:23;99465.28;;;14.64;73.78
65546;BME280;52177;55.968;37.498;2023-07-09T00:33:58;99463.63;;;14.63;73.70
65546;BME280;52177;55.968;37.498;2023-07-09T00:34:30;99465.47;;;14.63;73.95
65546;BME280;52177;55.968;37.498;2023-07-09T00:35:00;99462.81;;;14.63;73.80
65546;BME280;52177;55.968;37.498;2023-07-09T00:35:35;99464.03;;;14.60;73.80
65546;BME280;52177;55.968;37.498;2023-07-09T00:36:13;99458.91;;;14.59;73.93
65546;BME280;52177;55.968;37.498;2023-07-09T00:36:44;99456.44;;;14.57;74.00
65546;BME280;52177;55.968;37.498;2023-07-09T00:37:16;99457.66;;;14.54;73.97
65546;BME280;52177;55.968;37.498;2023-07-09T00:37:50;99455.16;;;14.53;73.84
65546;BME280;52177;55.968;37.498;2023-07-09T00:38:22;99461.56;;;14.52;73.83
65546;BME280;52177;55.968;37.498;2023-07-09T00:38:53;99454.53;;;14.51;73.89
65546;BME280;52177;55.968;37.498;2023-07-09T00:39:23;99461.75;;;14.50;74.14
65546;BME280;52177;55.968;37.498;2023-07-09T00:39:54;99451.22;;;14.49;74.36
65546;BME280;52177;55.968;37.498;2023-07-09T00:40:24;99453.09;;;14.48;74.47
65546;BME280;52177;55.968;37.498;2023-07-09T00:41:03;99452.06;;;14.49;74.74
65546;BME280;52177;55.968;37.498;2023-07-09T00:41:35;99456.59;;;14.49;74.58
65546;BME280;52177;55.968;37.498;2023-07-09T00:42:12;99449.59;;;14.48;74.60
65546;BME280;52177;55.968;37.498;2023-07-09T00:42:50;99455.78;;;14.48;74.71
65546;BME280;52177;55.968;37.498;2023-07-09T00:43:21;99454.13;;;14.47;74.70
65546;BME280;52177;55.968;37.498;2023-07-09T00:43:52;99458.66;;;14.47;74.56
65546;BME280;52177;55.968;37.498;2023-07-09T00:44:31;99448.97;;;14.46;74.67
65546;BME280;52177;55.968;37.498;2023-07-09T00:45:07;99448.97;;;14.46;74.65
65546;BME280;52177;55.968;37.498;2023-07-09T00:47:43;99451.88;;;14.38;74.67
65546;BME280;52177;55.968;37.498;2023-07-09T00:48:16;99451.88;;;14.38;74.77
65546;BME280;52177;55.968;37.498;2023-07-09T00:48:49;99455.38;;;14.38;74.55
65546;BME280;52177;55.968;37.498;2023-07-09T00:49:31;99452.06;;;14.36;74.46
65546;BME280;52177;55.968;37.498;2023-07-09T00:50:59;99455.38;;;14.38;74.79
65546;BME280;52177;55.968;37.498;2023-07-09T00:51:29;99450.03;;;14.38;74.62
65546;BME280;52177;55.968;37.498;2023-07-09T00:52:03;99454.34;;;14.39;74.66
65546;BME280;52177;55.968;37.498;2023-07-09T00:52:51;99457.84;;;14.40;74.68
65546;BME280;52177;55.968;37.498;2023-07-09T00:53:29;99450.84;;;14.39;74.62
65546;BME280;52177;55.968;37.498;2023-07-09T00:54:08;99455.16;;;14.40;74.47
65546;BME280;52177;55.968;37.498;2023-07-09T00:54:44;99444.03;;;14.36;74.30
65546;BME280;52177;55.968;37.498;2023-07-09T00:55:20;99445.06;;;14.35;74.35
65546;BME280;52177;55.968;37.498;2023-07-09T00:55:59;99451.66;;;14.32;74.37
65546;BME280;52177;55.968;37.498;2023-07-09T00:56:37;99443.84;;;14.31;74.56
65546;BME280;52177;55.968;37.498;2023-07-09T00:57:13;99443.00;;;14.30;74.68
65546;BME280;52177;55.968;37.498;2023-07-09T00:57:48;99441.34;;;14.29;74.66
65546;BME280;52177;55.968;37.498;2023-07-09T00:58:27;99440.53;;;14.29;74.50
65546;BME280;52177;55.968;37.498;2023-07-09T00:59:00;99444.03;;;14.29;74.50
65546;BME280;52177;55.968;37.498;2023-07-09T00:59:35;99443.22;;;14.29;74.45
65546;BME280;52177;55.968;37.498;2023-07-09T01:00:10;99443.22;;;14.29;74.28
65546;BME280;52177;55.968;37.498;2023-07-09T01:00:49;99448.34;;;14.30;74.29
65546;BME280;52177;55.968;37.498;2023-07-09T01:01:25;99440.53;;;14.29;74.27
65546;BME280;52177;55.968;37.498;2023-07-09T01:01:57;99437.63;;;14.30;74.34
65546;BME280;52177;55.968;37.498;2023-07-09T01:02:30;99436.00;;;14.29;74.15
65546;BME280;52177;55.968;37.498;2023-07-09T01:03:01;99440.94;;;14.32;74.16
65546;BME280;52177;55.968;37.498;2023-07-09T01:03:38;99437.44;;;14.32;74.09
65546;BME280;52177;55.968;37.498;2023-07-09T01:04:11;99439.09;;;14.33;74.22
65546;BME280;52177;55.968;37.498;2023-07-09T01:04:41;99438.88;;;14.34;74.13
65546;BME280;52177;55.968;37.498;2023-07-09T01:05:13;99436.00;;;14.36;74.12
65546;BME280;52177;55.968;37.498;2023-07-09T01:05:47;99432.50;;;14.35;74.15
65546;BME280;52177;55.968;37.498;2023-07-09T01:06:28;99434.94;;;14.37;74.21
65546;BME280;52177;55.968;37.498;2023-07-09T01:07:02;99430.63;;;14.36;74.06
65546;BME280;52177;55.968;37.498;2023-07-09T01:07:32;99434.13;;;14.36;74.04
65546;BME280;52177;55.968;37.498;2023-07-09T01:08:03;99431.44;;;14.36;73.81
65546;BME280;52177;55.968;37.498;2023-07-09T01:08:35;99432.25;;;14.37;73.86
65546;BME280;52177;55.968;37.498;2023-07-09T01:09:06;99427.13;;;14.35;73.97
65546;BME280;52177;55.968;37.498;2023-07-09T01:09:37;99426.09;;;14.36;73.93
65546;BME280;52177;55.968;37.498;2023-07-09T01:10:13;99425.47;;;14.34;73.87
65546;BME280;52177;55.968;37.498;2023-07-09T01:10:44;99429.81;;;14.35;73.97
65546;BME280;52177;55.968;37.498;2023-07-09T01:11:19;99434.31;;;14.35;73.81
65546;BME280;52177;55.968;37.498;2023-07-09T01:11:52;99428.38;;;14.33;73.80
65546;BME280;52177;55.968;37.498;2023-07-09T01:12:26;99432.88;;;14.32;74.01
65546;BME280;52177;55.968;37.498;2023-07-09T01:12:56;99427.53;;;14.32;74.02
65546;BME280;52177;55.968;37.498;2023-07-09T01:13:30;99425.88;;;14.31;73.92
65546;BME280;52177;55.968;37.498;2023-07-09T01:14:04;99424.03;;;14.32;74.00
65546;BME280;52177;55.968;37.498;2023-07-09T01:14:37;99426.91;;;14.30;74.06
65546;BME280;52177;55.968;37.498;2023-07-09T01:15:08;99429.59;;;14.30;74.04
65546;BME280;52177;55.968;37.498;2023-07-09T01:15:41;99424.22;;;14.30;74.01
65546;BME280;52177;55.968;37.498;2023-07-09T01:16:12;99418.84;;;14.30;73.95
65546;BME280;52177;55.968;37.498;2023-07-09T01:16:50;99421.53;;;14.30;73.96
65546;BME280;52177;55.968;37.498;2023-07-09T01:17:28;99425.25;;;14.29;73.97
65546;BME280;52177;55.968;37.498;2023-07-09T01:17:58;99426.91;;;14.30;73.97
65546;BME280;52177;55.968;37.498;2023-07-09T01:18:30;99424.44;;;14.29;74.05
65546;BME280;52177;55.968;37.498;2023-07-09T01:19:02;99429.81;;;14.29;73.96
65546;BME280;52177;55.968;37.498;2023-07-09T01:19:39;99429.00;;;14.28;74.00
65546;BME280;52177;55.968;37.498;2023-07-09T01:20:17;99430.00;;;14.27;73.95
65546;BME280;52177;55.968;37.498;2023-07-09T01:20:58;99426.50;;;14.27;73.91
65546;BME280;52177;55.968;37.498;2023-07-09T01:21:31;99430.22;;;14.26;74.03
65546;BME280;52177;55.968;37.498;2023-07-09T01:22:02;99423.00;;;14.26;73.96
65546;BME280;52177;55.968;37.498;2023-07-09T01:22:33;99422.19;;;14.26;74.07
65546;BME280;52177;55.968;37.498;2023-07-09T01:23:07;99427.31;;;14.27;73.99
65546;BME280;52177;55.968;37.498;2023-07-09T01:23:37;99426.50;;;14.27;73.99
65546;BME280;52177;55.968;37.498;2023-07-09T01:25:19;99418.03;;;14.23;74.11
65546;BME280;52177;55.968;37.498;2023-07-09T01:25:51;99425.25;;;14.23;74.27
65546;BME280;52177;55.968;37.498;2023-07-09T01:26:27;99423.41;;;14.23;74.23
65546;BME280;52177;55.968;37.498;2023-07-09T01:26:57;99427.75;;;14.24;74.24
65546;BME280;52177;55.968;37.498;2023-07-09T01:27:32;99424.88;;;14.26;74.30
65546;BME280;52177;55.968;37.498;2023-07-09T01:28:03;99416.81;;;14.26;74.33
65546;BME280;52177;55.968;37.498;2023-07-09T01:28:34;99422.78;;;14.28;74.46
65546;BME280;52177;55.968;37.498;2023-07-09T01:29:04;99414.53;;;14.29;74.41
65546;BME280;52177;55.968;37.498;2023-07-09T01:29:35;99423.19;;;14.31;74.40
65546;BME280;52177;55.968;37.498;2023-07-09T01:30:12;99419.47;;;14.32;74.23
65546;BME280;52177;55.968;37.498;2023-07-09T01:30:45;99425.88;;;14.31;74.20
65546;BME280;52177;55.968;37.498;2023-07-09T01:31:15;99423.19;;;14.31;74.24
65546;BME280;52177;55.968;37.498;2023-07-09T01:31:45;99416.16;;;14.30;74.23
65546;BME280;52177;55.968;37.498;2023-07-09T01:32:17;99420.72;;;14.30;74.32
65546;BME280;52177;55.968;37.498;2023-07-09T01:32:50;99418.84;;;14.30;74.30
65546;BME280;52177;55.968;37.498;2023-07-09T01:33:22;99421.53;;;14.30;74.32
65546;BME280;52177;55.968;37.498;2023-07-09T01:33:53;99423.41;;;14.30;74.39
65546;BME280;52177;55.968;37.498;2023-07-09T01:34:23;99428.56;;;14.31;74.36
65546;BME280;52177;55.968;37.498;2023-07-09T01:34:57;99422.38;;;14.31;74.30
65546;BME280;52177;55.968;37.498;2023-07-09T01:35:30;99427.75;;;14.31;74.54
65546;BME280;52177;55.968;37.498;2023-07-09T01:36:02;99418.84;;;14.30;74.48
65546;BME280;52177;55.968;37.498;2023-07-09T01:36:33;99418.66;;;14.32;74.65
65546;BME280;52177;55.968;37.498;2023-07-09T01:37:03;99419.47;;;14.32;74.51
65546;BME280;52177;55.968;37.498;2023-07-09T01:37:36;99418.47;;;14.33;74.47
65546;BME280;52177;55.968;37.498;2023-07-09T01:38:07;99419.28;;;14.34;74.37
65546;BME280;52177;55.968;37.498;2023-07-09T01:38:38;99417.66;;;14.33;74.50
65546;BME280;52177;55.968;37.498;2023-07-09T01:39:09;99414.97;;;14.33;74.43
65546;BME280;52177;55.968;37.498;2023-07-09T01:39:39;99417.84;;;14.31;74.41
65546;BME280;52177;55.968;37.498;2023-07-09T01:40:13;99423.19;;;14.31;74.49
65546;BME280;52177;55.968;37.498;2023-07-09T01:40:44;99415.16;;;14.31;74.40
65546;BME280;52177;55.968;37.498;2023-07-09T01:41:16;99415.16;;;14.31;74.56
65546;BME280;52177;55.968;37.498;2023-07-09T01:41:47;99413.28;;;14.32;74.70
65546;BME280;52177;55.968;37.498;2023-07-09T01:42:18;99413.91;;;14.34;74.49
65546;BME280;52177;55.968;37.498;2023-07-09T01:42:51;99413.72;;;14.35;74.47
65546;BME280;52177;55.968;37.498;2023-07-09T01:43:22;99415.34;;;14.36;74.43
65546;BME280;52177;55.968;37.498;2023-07-09T01:43:54;99417.03;;;14.38;74.43
65546;BME280;52177;55.968;37.498;2023-07-09T01:44:25;99418.22;;;14.42;74.62
65546;BME280;52177;55.968;37.498;2023-07-09T01:44:59;99414.53;;;14.43;74.63
65546;BME280;52177;55.968;37.498;2023-07-09T01:45:32;99415.16;;;14.45;74.52
65546;BME280;52177;55.968;37.498;2023-07-09T01:46:03;99406.06;;;14.46;74.55
65546;BME280;52177;55.968;37.498;2023-07-09T01:46:33;99412.88;;;14.48;74.50
65546;BME280;52177;55.968;37.498;2023-07-09T01:47:05;99419.91;;;14.49;74.46
65546;BME280;52177;55.968;37.498;2023-07-09T01:47:36;99416.97;;;14.51;74.43
65546;BME280;52177;55.968;37.498;2023-07-09T01:48:07;99414.53;;;14.49;74.38
65546;BME280;52177;55.968;37.498;2023-07-09T01:48:45;99413.69;;;14.49;74.60
65546;BME280;52177;55.968;37.498;2023-07-09T01:49:16;99412.66;;;14.50;74.64
65546;BME280;52177;55.968;37.498;2023-07-09T01:49:46;99416.16;;;14.50;74.46
65546;BME280;52177;55.968;37.498;2023-07-09T01:50:17;99418.84;;;14.50;74.47
65546;BME280;52177;55.968;37.498;2023-07-09T01:50:48;99417.78;;;14.51;74.47
65546;BME280;52177;55.968;37.498;2023-07-09T01:51:19;99416.16;;;14.50;74.61
65546;BME280;52177;55.968;37.498;2023-07-09T01:51:50;99414.28;;;14.51;74.60
65546;BME280;52177;55.968;37.498;2023-07-09T01:52:20;99421.31;;;14.52;74.60
65546;BME280;52177;55.968;37.498;2023-07-09T01:52:52;99412.44;;;14.51;74.53
65546;BME280;52177;55.968;37.498;2023-07-09T01:53:25;99421.31;;;14.52;74.65
65546;BME280;52177;55.968;37.498;2023-07-09T01:53:56;99420.72;;;14.50;74.54
65546;BME280;52177;55.968;37.498;2023-07-09T01:54:30;99417.41;;;14.48;74.68
65546;BME280;52177;55.968;37.498;2023-07-09T01:55:01;99413.91;;;14.47;74.89
65546;BME280;52177;55.968;37.498;2023-07-09T01:55:33;99420.28;;;14.46;74.91
65546;BME280;52177;55.968;37.498;2023-07-09T01:56:04;99414.09;;;14.46;75.02
65546;BME280;52177;55.968;37.498;2023-07-09T01:56:34;99413.91;;;14.47;75.05
65546;BME280;52177;55.968;37.498;2023-07-09T01:57:15;99417.41;;;14.48;74.96
65546;BME280;52177;55.968;37.498;2023-07-09T01:57:46;99422.78;;;14.48;75.08
65546;BME280;52177;55.968;37.498;2023-07-09T01:58:16;99424.41;;;14.49;74.98
65546;BME280;52177;55.968;37.498;2023-07-09T01:58:47;99418.41;;;14.47;74.98
65546;BME280;52177;55.968;37.498;2023-07-09T01:59:18;99421.09;;;14.47;75.05
65546;BME280;52177;55.968;37.498;2023-07-09T01:59:52;99421.94;;;14.47;75.12
65546;BME280;52177;55.968;37.498;2023-07-09T02:00:24;99417.41;;;14.48;75.19
65546;BME280;52177;55.968;37.498;2023-07-09T02:00:54;99418.22;;;14.48;75.18
65546;BME280;52177;55.968;37.498;2023-07-09T02:01:25;99417.22;;;14.49;75.22
65546;BME280;52177;55.968;37.498;2023-07-09T02:01:55;99420.47;;;14.51;75.10
65546;BME280;52177;55.968;37.498;2023-07-09T02:02:27;99425.66;;;14.53;75.17
65546;BME280;52177;55.968;37.498;2023-07-09T02:02:58;99421.97;;;14.54;75.20
65546;BME280;52177;55.968;37.498;2023-07-09T02:03:30;99424.44;;;14.55;75.08
65546;BME280;52177;55.968;37.498;2023-07-09T02:04:00;99423.19;;;14.58;74.88
65546;BME280;52177;55.968;37.498;2023-07-09T02:04:30;99416.81;;;14.59;75.11
65546;BME280;52177;55.968;37.498;2023-07-09T02:05:02;99417.44;;;14.61;75.08
65546;BME280;52177;55.968;37.498;2023-07-09T02:05:32;99424.22;;;14.64;75.06
65546;BME280;52177;55.968;37.498;2023-07-09T02:06:03;99424.00;;;14.65;75.03
65546;BME280;52177;55.968;37.498;2023-07-09T02:06:39;99425.66;;;14.66;75.19
65546;BME280;52177;55.968;37.498;2023-07-09T02:07:09;99414.94;;;14.66;75.15
65546;BME280;52177;55.968;37.498;2023-07-09T02:07:40;99421.94;;;14.67;75.13
65546;BME280;52177;55.968;37.498;2023-07-09T02:08:10;99416.38;;;14.69;75.17
65546;BME280;52177;55.968;37.498;2023-07-09T02:08:41;99417.38;;;14.68;75.19
65546;BME280;52177;55.968;37.498;2023-07-09T02:09:11;99411.81;;;14.69;75.25
65546;BME280;52177;55.968;37.498;2023-07-09T02:09:41;99418.00;;;14.70;75.29
65546;BME280;52177;55.968;37.498;2023-07-09T02:10:13;99415.31;;;14.70;75.35
65546;BME280;52177;55.968;37.498;2023-07-09T02:10:45;99415.13;;;14.71;75.33
65546;BME280;52177;55.968;37.498;2023-07-09T02:11:18;99409.75;;;14.71;75.22
65546;BME280;52177;55.968;37.498;2023-07-09T02:11:48;99420.28;;;14.73;75.35
65546;BME280;52177;55.968;37.498;2023-07-09T02:12:19;99419.03;;;14.75;75.18
65546;BME280;52177;55.968;37.498;2023-07-09T02:12:49;99411.81;;;14.76;75.35
65546;BME280;52177;55.968;37.498;2023-07-09T02:13:20;99422.34;;;14.77;75.29
65546;BME280;52177;55.968;37.498;2023-07-09T02:13:50;99420.47;;;14.78;75.39
65546;BME280;52177;55.968;37.498;2023-07-09T02:14:20;99417.56;;;14.80;75.40
65546;BME280;52177;55.968;37.498;2023-07-09T02:14:51;99421.91;;;14.81;75.24
65546;BME280;52177;55.968;37.498;2023-07-09T02:15:21;99418.19;;;14.82;75.10
65546;BME280;52177;55.968;37.498;2023-07-09T02:15:51;99413.66;;;14.82;75.39
65546;BME280;52177;55.968;37.498;2023-07-09T02:16:22;99410.97;;;14.82;75.38
65546;BME280;52177;55.968;37.498;2023-07-09T02:16:52;99414.03;;;14.86;75.32
65546;BME280;52177;55.968;37.498;2023-07-09T02:17:22;99413.03;;;14.87;75.33
65546;BME280;52177;55.968;37.498;2023-07-09T02:17:53;99415.72;;;14.87;75.32
65546;BME280;52177;55.968;37.498;2023-07-09T02:18:23;99408.47;;;14.87;75.22
65546;BME280;52177;55.968;37.498;2023-07-09T02:18:53;99414.66;;;14.88;75.30
65546;BME280;52177;55.968;37.498;2023-07-09T02:19:24;99405.56;;;14.89;75.38
65546;BME280;52177;55.968;37.498;2023-07-09T02:19:54;99401.84;;;14.90;75.50
65546;BME280;52177;55.968;37.498;2023-07-09T02:20:24;99407.59;;;14.93;75.37
65546;BME280;52177;55.968;37.498;2023-07-09T02:20:56;99410.09;;;14.95;75.45
65546;BME280;52177;55.968;37.498;2023-07-09T02:21:26;99402.66;;;14.97;75.30
65546;BME280;52177;55.968;37.498;2023-07-09T02:22:00;99405.72;;;15.01;75.39
65546;BME280;52177;55.968;37.498;2023-07-09T02:22:30;99405.50;;;15.02;75.30
65546;BME280;52177;55.968;37.498;2023-07-09T02:23:02;99410.44;;;15.05;75.44
65546;BME280;52177;55.968;37.498;2023-07-09T02:23:32;99411.69;;;15.09;75.26
65546;BME280;52177;55.968;37.498;2023-07-09T02:24:03;99406.09;;;15.11;75.16
65546;BME280;52177;55.968;37.498;2023-07-09T02:24:34;99404.84;;;15.13;75.04
65546;BME280;52177;55.968;37.498;2023-07-09T02:25:04;99405.47;;;15.15;75.14
65546;BME280;52177;55.968;37.498;2023-07-09T02:25:35;99409.78;;;15.16;75.03
65546;BME280;52177;55.968;37.498;2023-07-09T02:26:06;99406.09;;;15.17;74.97
65546;BME280;52177;55.968;37.498;2023-07-09T02:26:36;99411.03;;;15.20;75.05
65546;BME280;52177;55.968;37.498;2023-07-09T02:27:08;99409.16;;;15.21;75.10
65546;BME280;52177;55.968;37.498;2023-07-09T02:27:40;99414.13;;;15.24;74.99
65546;BME280;52177;55.968;37.498;2023-07-09T02:28:10;99409.31;;;15.26;75.04
65546;BME280;52177;55.968;37.498;2023-07-09T02:28:41;99408.31;;;15.27;75.08
65546;BME280;52177;55.968;37.498;2023-07-09T02:29:11;99410.75;;;15.29;75.06
65546;BME280;52177;55.968;37.498;2023-07-09T02:29:41;99412.41;;;15.30;75.27
65546;BME280;52177;55.968;37.498;2023-07-09T02:30:12;99413.25;;;15.30;75.33
65546;BME280;52177;55.968;37.498;2023-07-09T02:30:42;99418.41;;;15.32;75.21
65546;BME280;52177;55.968;37.498;2023-07-09T02:31:12;99414.66;;;15.33;75.26
65546;BME280;52177;55.968;37.498;2023-07-09T02:31:45;99416.34;;;15.34;75.16
65546;BME280;52177;55.968;37.498;2023-07-09T02:32:21;99419.63;;;15.36;75.08
65546;BME280;52177;55.968;37.498;2023-07-09T02:32:52;99413.00;;;15.38;75.24
65546;BME280;52177;55.968;37.498;2023-07-09T02:33:24;99411.13;;;15.39;75.19
65546;BME280;52177;55.968;37.498;2023-07-09T02:33:54;99417.13;;;15.41;75.17
65546;BME280;52177;55.968;37.498;2023-07-09T02:34:26;99414.81;;;15.45;75.06
65546;BME280;52177;55.968;37.498;2023-07-09T02:34:56;99419.38;;;15.44;75.26
65546;BME280;52177;55.968;37.498;2023-07-09T02:35:26;99421.00;;;15.45;75.20
65546;BME280;52177;55.968;37.498;2023-07-09T02:35:57;99410.06;;;15.47;75.16
65546;BME280;52177;55.968;37.498;2023-07-09T02:36:27;99414.16;;;15.49;75.14
65546;BME280;52177;55.968;37.498;2023-07-09T02:36:58;99415.59;;;15.52;75.23
65546;BME280;52177;55.968;37.498;2023-07-09T02:37:29;99414.34;;;15.54;75.25
65546;BME280;52177;55.968;37.498;2023-07-09T02:37:59;99409.38;;;15.58;75.13
65546;BME280;52177;55.968;37.498;2023-07-09T02:38:29;99409.97;;;15.60;75.23
65546;BME280;52177;55.968;37.498;2023-07-09T02:39:00;99411.22;;;15.64;74.97
65546;BME280;52177;55.968;37.498;2023-07-09T02:39:30;99408.88;;;15.68;75.03
65546;BME280;52177;55.968;37.498;2023-07-09T02:40:01;99409.31;;;15.71;74.88
65546;BME280;52177;55.968;37.498;2023-07-09T02:40:31;99409.69;;;15.75;74.79
65546;BME280;52177;55.968;37.498;2023-07-09T02:41:04;99407.63;;;15.77;74.82
65546;BME280;52177;55.968;37.498;2023-07-09T02:41:34;99409.06;;;15.79;74.71
65546;BME280;52177;55.968;37.498;2023-07-09T02:42:05;99408.84;;;15.81;74.76
65546;BME280;52177;55.968;37.498;2023-07-09T02:42:35;99404.91;;;15.83;74.71
65546;BME280;52177;55.968;37.498;2023-07-09T02:43:05;99406.31;;;15.86;74.65
65546;BME280;52177;55.968;37.498;2023-07-09T02:43:36;99411.25;;;15.89;74.57
65546;BME280;52177;55.968;37.498;2023-07-09T02:44:07;99409.16;;;15.91;74.53
65546;BME280;52177;55.968;37.498;2023-07-09T02:44:38;99400.66;;;15.94;74.42
65546;BME280;52177;55.968;37.498;2023-07-09T02:45:09;99406.66;;;15.96;74.46
65546;BME280;52177;55.968;37.498;2023-07-09T02:45:39;99409.13;;;15.98;74.28
65546;BME280;52177;55.968;37.498;2023-07-09T02:46:09;99406.22;;;15.99;74.23
65546;BME280;52177;55.968;37.498;2023-07-09T02:46:40;99402.28;;;16.02;74.11
65546;BME280;52177;55.968;37.498;2023-07-09T02:47:11;99403.69;;;16.04;74.21
65546;BME280;52177;55.968;37.498;2023-07-09T02:47:41;99411.56;;;16.06;74.23
65546;BME280;52177;55.968;37.498;2023-07-09T02:48:12;99405.72;;;16.09;74.22
65546;BME280;52177;55.968;37.498;2023-07-09T02:48:42;99407.38;;;16.10;74.33
65546;BME280;52177;55.968;37.498;2023-07-09T02:49:14;99409.84;;;16.12;74.25
65546;BME280;52177;55.968;37.498;2023-07-09T02:49:44;99407.97;;;16.12;74.24
65546;BME280;52177;55.968;37.498;2023-07-09T02:50:15;99410.66;;;16.12;74.40
65546;BME280;52177;55.968;37.498;2023-07-09T02:50:45;99407.75;;;16.14;74.53
65546;BME280;52177;55.968;37.498;2023-07-09T02:51:15;99408.38;;;16.16;74.52
65546;BME280;52177;55.968;37.498;2023-07-09T02:51:46;99404.63;;;16.17;74.58
65546;BME280;52177;55.968;37.498;2023-07-09T02:52:16;99404.63;;;16.17;74.52